createdAt,value
2016-11-29T00:00:22.202Z,24.45
2016-11-29T00:00:50.968Z,24.46
2016-11-29T00:01:19.821Z,24.46
2016-11-29T00:01:47.896Z,24.4
2016-11-29T00:02:16.755Z,24.47
2016-11-29T00:02:44.763Z,24.42
2016-11-29T00:03:12.840Z,24.46
2016-11-29T00:03:40.916Z,24.49
2016-11-29T00:04:11.312Z,24.47
2016-11-29T00:04:39.393Z,24.43
2016-11-29T00:05:07.206Z,24.45
2016-11-29T00:05:35.976Z,24.4
2016-11-29T00:06:04.998Z,24.46
2016-11-29T00:06:35.308Z,24.42
2016-11-29T00:07:04.080Z,24.45
2016-11-29T00:07:32.844Z,24.43
2016-11-29T00:08:01.706Z,24.37
2016-11-29T00:08:29.772Z,24.27
2016-11-29T00:08:57.756Z,24.3
2016-11-29T00:09:26.435Z,24.32
2016-11-29T00:09:54.231Z,24.32
2016-11-29T00:10:22.140Z,24.32
2016-11-29T00:10:50.908Z,24.25
2016-11-29T00:11:20.266Z,24.34
2016-11-29T00:11:49.123Z,24.31
2016-11-29T00:12:17.101Z,24.31
2016-11-29T00:12:46.465Z,24.25
2016-11-29T00:13:14.535Z,24.32
2016-11-29T00:13:42.602Z,24.31
2016-11-29T00:14:10.494Z,24.13
2016-11-29T00:14:38.386Z,24.31
2016-11-29T00:15:06.364Z,24.27
2016-11-29T00:15:35.128Z,24.24
2016-11-29T00:16:04.573Z,24.27
2016-11-29T00:16:33.423Z,24.22
2016-11-29T00:17:02.214Z,24.3
2016-11-29T00:17:30.190Z,24.27
2016-11-29T00:17:57.990Z,24.24
2016-11-29T00:18:26.759Z,24.31
2016-11-29T00:18:56.379Z,24.34
2016-11-29T00:19:25.240Z,24.24
2016-11-29T00:19:53.225Z,24.35
2016-11-29T00:20:21.207Z,24.25
2016-11-29T00:20:49.206Z,24.27
2016-11-29T00:21:17.973Z,24.27
2016-11-29T00:21:46.736Z,24.27
2016-11-29T00:22:16.952Z,24.28
2016-11-29T00:22:46.492Z,24.27
2016-11-29T00:23:14.492Z,24.25
2016-11-29T00:23:44.121Z,24.24
2016-11-29T00:24:12.103Z,24.25
2016-11-29T00:24:40.004Z,24.31
2016-11-29T00:25:07.896Z,24.34
2016-11-29T00:25:36.664Z,24.27
2016-11-29T00:26:04.650Z,24.32
2016-11-29T00:26:33.410Z,24.31
2016-11-29T00:27:01.481Z,24.16
2016-11-29T00:27:31.025Z,24.21
2016-11-29T00:27:59.035Z,24.18
2016-11-29T00:28:27.027Z,24.22
2016-11-29T00:28:58.876Z,24.15
2016-11-29T00:29:27.728Z,24.2
2016-11-29T00:29:55.721Z,24.16
2016-11-29T00:30:23.616Z,24.18
2016-11-29T00:30:55.801Z,24.18
2016-11-29T00:31:25.143Z,24.18
2016-11-29T00:31:53.217Z,24.2
2016-11-29T00:32:22.069Z,24.13
2016-11-29T00:32:50.051Z,24.21
2016-11-29T00:33:18.123Z,24.21
2016-11-29T00:33:48.535Z,24.21
2016-11-29T00:34:16.611Z,24.24
2016-11-29T00:34:44.600Z,24.15
2016-11-29T00:35:13.444Z,24.16
2016-11-29T00:35:42.304Z,24.1
2016-11-29T00:36:11.848Z,24.22
2016-11-29T00:36:40.609Z,24.1
2016-11-29T00:37:08.514Z,24.12
2016-11-29T00:37:37.361Z,24.12
2016-11-29T00:38:06.025Z,24.13
2016-11-29T00:39:12.340Z,24.06
2016-11-29T00:39:41.192Z,24.08
2016-11-29T00:40:09.264Z,24.06
2016-11-29T00:40:38.823Z,24.16
2016-11-29T00:41:06.610Z,24.08
2016-11-29T00:41:34.594Z,24.02
2016-11-29T00:42:02.587Z,24.08
2016-11-29T00:42:31.446Z,24
2016-11-29T00:43:00.986Z,23.98
2016-11-29T00:43:31.295Z,24.05
2016-11-29T00:43:59.192Z,23.95
2016-11-29T00:44:27.264Z,24.05
2016-11-29T00:44:56.219Z,24.03
2016-11-29T00:45:25.762Z,24.06
2016-11-29T00:45:55.252Z,24.03
2016-11-29T00:46:24.099Z,23.98
2016-11-29T00:46:52.094Z,24
2016-11-29T00:47:20.858Z,24
2016-11-29T00:47:48.836Z,24
2016-11-29T00:48:17.687Z,24
2016-11-29T00:48:46.467Z,23.97
2016-11-29T00:49:14.455Z,24.02
2016-11-29T00:49:42.430Z,24.03
2016-11-29T00:50:10.321Z,24.05
2016-11-29T00:50:38.491Z,24.05
2016-11-29T00:51:07.342Z,24.06
2016-11-29T00:51:36.872Z,24.02
2016-11-29T00:52:04.850Z,23.97
2016-11-29T00:52:33.614Z,24.05
2016-11-29T00:53:01.603Z,24.03
2016-11-29T00:53:29.671Z,24.02
2016-11-29T00:53:57.654Z,23.98
2016-11-29T00:54:26.505Z,24.05
2016-11-29T00:54:55.261Z,24.02
2016-11-29T00:55:23.273Z,23.95
2016-11-29T00:55:51.158Z,23.94
2016-11-29T00:56:20.004Z,23.97
2016-11-29T00:56:48.862Z,24
2016-11-29T00:57:17.615Z,23.98
2016-11-29T00:57:47.170Z,23.91
2016-11-29T00:58:15.130Z,23.95
2016-11-29T00:58:43.901Z,23.93
2016-11-29T00:59:13.545Z,24
2016-11-29T00:59:41.616Z,23.91
2016-11-29T01:00:09.602Z,23.93
2016-11-29T01:00:38.444Z,23.95
2016-11-29T01:01:07.302Z,23.97
2016-11-29T01:01:36.066Z,23.9
2016-11-29T01:02:04.828Z,23.93
2016-11-29T01:02:32.827Z,23.94
2016-11-29T01:03:00.732Z,23.9
2016-11-29T01:03:28.698Z,23.94
2016-11-29T01:03:56.763Z,23.91
2016-11-29T01:04:24.845Z,23.94
2016-11-29T01:04:52.643Z,23.98
2016-11-29T01:05:22.275Z,23.95
2016-11-29T01:05:50.566Z,23.97
2016-11-29T01:06:18.631Z,23.97
2016-11-29T01:06:46.703Z,23.94
2016-11-29T01:07:15.551Z,23.93
2016-11-29T01:07:43.545Z,23.9
2016-11-29T01:08:11.540Z,23.94
2016-11-29T01:08:39.335Z,23.94
2016-11-29T01:09:07.223Z,23.91
2016-11-29T01:09:36.073Z,23.97
2016-11-29T01:10:03.966Z,23.94
2016-11-29T01:10:31.945Z,24
2016-11-29T01:11:00.005Z,23.98
2016-11-29T01:11:28.764Z,24.02
2016-11-29T01:11:57.612Z,24
2016-11-29T01:12:25.599Z,24.08
2016-11-29T01:12:53.580Z,24.02
2016-11-29T01:13:21.555Z,24
2016-11-29T01:13:49.624Z,24.08
2016-11-29T01:14:17.616Z,24.02
2016-11-29T01:14:46.379Z,24.08
2016-11-29T01:15:16.009Z,24.09
2016-11-29T01:15:44.868Z,24.1
2016-11-29T01:16:14.502Z,24.12
2016-11-29T01:16:43.445Z,24.16
2016-11-29T01:17:12.989Z,24.18
2016-11-29T01:17:41.752Z,24.18
2016-11-29T01:18:48.015Z,24.16
2016-11-29T01:19:16.874Z,24.18
2016-11-29T01:19:45.729Z,24.2
2016-11-29T01:20:15.393Z,24.16
2016-11-29T01:20:43.474Z,24.16
2016-11-29T01:21:12.250Z,24.12
2016-11-29T01:21:41.021Z,24.18
2016-11-29T01:22:09.000Z,24.21
2016-11-29T01:22:38.543Z,24.16
2016-11-29T01:23:07.475Z,24.18
2016-11-29T01:23:36.230Z,24.13
2016-11-29T01:24:04.214Z,24.25
2016-11-29T01:24:32.981Z,24.18
2016-11-29T01:25:01.838Z,24.25
2016-11-29T01:25:30.429Z,24.16
2016-11-29T01:25:59.996Z,24.25
2016-11-29T01:26:29.609Z,24.28
2016-11-29T01:26:57.593Z,24.3
2016-11-29T01:27:27.136Z,24.32
2016-11-29T01:27:55.805Z,24.24
2016-11-29T01:28:25.343Z,24.28
2016-11-29T01:28:53.421Z,24.31
2016-11-29T01:29:21.303Z,24.22
2016-11-29T01:29:49.209Z,24.28
2016-11-29T01:30:17.096Z,24.22
2016-11-29T01:30:45.856Z,24.27
2016-11-29T01:31:13.843Z,24.27
2016-11-29T01:31:42.689Z,24.32
2016-11-29T01:32:13.098Z,24.27
2016-11-29T01:32:41.079Z,24.3
2016-11-29T01:33:09.837Z,24.31
2016-11-29T01:33:37.736Z,24.24
2016-11-29T01:34:06.493Z,24.31
2016-11-29T01:34:35.343Z,24.27
2016-11-29T01:35:04.103Z,24.28
2016-11-29T01:35:32.852Z,24.3
2016-11-29T01:36:02.483Z,24.28
2016-11-29T01:36:30.381Z,24.27
2016-11-29T01:36:59.137Z,24.27
2016-11-29T01:37:27.125Z,24.31
2016-11-29T01:37:55.102Z,24.34
2016-11-29T01:38:23.169Z,24.28
2016-11-29T01:38:51.156Z,24.32
2016-11-29T01:39:19.051Z,24.32
2016-11-29T01:39:47.273Z,24.3
2016-11-29T01:40:15.333Z,24.31
2016-11-29T01:40:43.413Z,24.32
2016-11-29T01:41:12.259Z,24.28
2016-11-29T01:41:41.018Z,24.32
2016-11-29T01:42:09.695Z,24.32
2016-11-29T01:42:39.335Z,24.46
2016-11-29T01:43:08.178Z,24.34
2016-11-29T01:43:37.016Z,24.4
2016-11-29T01:44:05.006Z,24.39
2016-11-29T01:44:33.076Z,24.45
2016-11-29T01:45:01.835Z,24.31
2016-11-29T01:45:29.913Z,24.43
2016-11-29T01:45:59.459Z,24.46
2016-11-29T01:46:27.644Z,24.46
2016-11-29T01:46:55.539Z,24.34
2016-11-29T01:47:24.388Z,24.34
2016-11-29T01:47:53.247Z,24.4
2016-11-29T01:48:23.657Z,24.42
2016-11-29T01:48:51.640Z,24.37
2016-11-29T01:49:20.500Z,24.37
2016-11-29T01:49:49.173Z,24.47
2016-11-29T01:50:18.806Z,24.45
2016-11-29T01:50:46.887Z,24.46
2016-11-29T01:51:15.735Z,24.34
2016-11-29T01:51:43.713Z,24.34
2016-11-29T01:52:11.780Z,24.45
2016-11-29T01:52:39.854Z,24.45
2016-11-29T01:53:07.825Z,24.42
2016-11-29T01:53:35.898Z,24.4
2016-11-29T01:54:03.804Z,24.37
2016-11-29T01:54:31.927Z,24.31
2016-11-29T01:54:59.907Z,24.32
2016-11-29T01:55:27.989Z,24.34
2016-11-29T01:55:55.972Z,24.27
2016-11-29T01:56:23.878Z,24.27
2016-11-29T01:56:51.950Z,24.3
2016-11-29T01:57:20.704Z,24.34
2016-11-29T01:58:27.057Z,24.42
2016-11-29T01:58:55.134Z,24.4
2016-11-29T01:59:24.675Z,24.37
2016-11-29T01:59:53.446Z,24.4
2016-11-29T02:00:21.261Z,24.46
2016-11-29T02:00:49.257Z,24.43
2016-11-29T02:01:18.116Z,24.47
2016-11-29T02:01:46.114Z,24.49
2016-11-29T02:02:14.089Z,24.49
2016-11-29T02:02:42.072Z,24.46
2016-11-29T02:03:10.047Z,24.5
2016-11-29T02:03:38.116Z,24.46
2016-11-29T02:04:06.096Z,24.5
2016-11-29T02:04:34.859Z,24.53
2016-11-29T02:05:03.434Z,24.53
2016-11-29T02:05:31.417Z,24.58
2016-11-29T02:06:00.282Z,24.58
2016-11-29T02:06:28.288Z,24.57
2016-11-29T02:06:58.695Z,24.57
2016-11-29T02:07:26.676Z,24.6
2016-11-29T02:07:55.359Z,24.57
2016-11-29T02:08:23.345Z,24.57
2016-11-29T02:08:52.194Z,24.53
2016-11-29T02:09:20.090Z,24.55
2016-11-29T02:09:48.906Z,24.5
2016-11-29T02:10:16.795Z,24.53
2016-11-29T02:10:47.885Z,24.57
2016-11-29T02:11:16.734Z,24.57
2016-11-29T02:11:45.592Z,24.45
2016-11-29T02:12:15.124Z,24.46
2016-11-29T02:12:43.801Z,24.47
2016-11-29T02:13:11.781Z,24.47
2016-11-29T02:13:39.765Z,24.42
2016-11-29T02:14:07.735Z,24.46
2016-11-29T02:14:36.504Z,24.5
2016-11-29T02:15:05.258Z,24.42
2016-11-29T02:15:33.238Z,24.4
2016-11-29T02:16:01.230Z,24.42
2016-11-29T02:16:29.119Z,24.43
2016-11-29T02:16:57.010Z,24.31
2016-11-29T02:17:25.085Z,24.45
2016-11-29T02:17:52.969Z,24.34
2016-11-29T02:18:20.866Z,24.3
2016-11-29T02:18:48.755Z,24.37
2016-11-29T02:19:17.514Z,24.27
2016-11-29T02:19:45.577Z,24.32
2016-11-29T02:20:14.448Z,24.3
2016-11-29T02:20:42.506Z,24.31
2016-11-29T02:21:10.388Z,24.35
2016-11-29T02:21:39.247Z,24.31
2016-11-29T02:22:07.150Z,24.3
2016-11-29T02:22:35.722Z,24.28
2016-11-29T02:23:04.564Z,24.27
2016-11-29T02:23:32.555Z,24.24
2016-11-29T02:24:01.412Z,24.3
2016-11-29T02:24:29.483Z,24.25
2016-11-29T02:24:59.121Z,24.3
2016-11-29T02:25:26.997Z,24.24
2016-11-29T02:25:56.617Z,24.34
2016-11-29T02:26:25.464Z,24.32
2016-11-29T02:26:55.085Z,24.3
2016-11-29T02:27:23.171Z,24.27
2016-11-29T02:27:52.709Z,24.31
2016-11-29T02:28:21.467Z,24.28
2016-11-29T02:28:49.457Z,24.25
2016-11-29T02:29:17.356Z,24.31
2016-11-29T02:29:46.952Z,24.24
2016-11-29T02:30:15.651Z,24.28
2016-11-29T02:30:43.638Z,24.34
2016-11-29T02:31:11.719Z,24.28
2016-11-29T02:31:39.703Z,24.28
2016-11-29T02:32:07.776Z,24.34
2016-11-29T02:32:36.624Z,24.3
2016-11-29T02:33:05.386Z,24.31
2016-11-29T02:33:34.248Z,24.35
2016-11-29T02:34:03.098Z,24.34
2016-11-29T02:34:30.992Z,24.25
2016-11-29T02:34:58.795Z,24.28
2016-11-29T02:35:27.553Z,24.28
2016-11-29T02:35:57.094Z,24.34
2016-11-29T02:36:25.076Z,24.31
2016-11-29T02:36:55.481Z,24.25
2016-11-29T02:38:01.837Z,24.31
2016-11-29T02:38:29.909Z,24.4
2016-11-29T02:38:58.761Z,24.3
2016-11-29T02:39:26.668Z,24.34
2016-11-29T02:39:55.440Z,24.3
2016-11-29T02:40:24.203Z,24.34
2016-11-29T02:40:52.287Z,24.35
2016-11-29T02:41:20.267Z,24.32
2016-11-29T02:41:48.335Z,24.31
2016-11-29T02:42:17.889Z,24.3
2016-11-29T02:42:46.733Z,24.4
2016-11-29T02:43:15.495Z,24.31
2016-11-29T02:43:43.564Z,24.4
2016-11-29T02:44:11.633Z,24.34
2016-11-29T02:44:39.765Z,24.28
2016-11-29T02:45:08.618Z,24.35
2016-11-29T02:45:36.697Z,24.27
2016-11-29T02:46:04.581Z,24.18
2016-11-29T02:46:32.653Z,24.24
2016-11-29T02:47:01.423Z,24.16
2016-11-29T02:47:30.176Z,24.22
2016-11-29T02:47:58.265Z,24.2
2016-11-29T02:48:26.337Z,24.15
2016-11-29T02:48:54.138Z,24.15
2016-11-29T02:49:22.123Z,24.22
2016-11-29T02:49:50.191Z,24.16
2016-11-29T02:50:18.283Z,24.16
2016-11-29T02:50:46.262Z,24.15
2016-11-29T02:51:15.116Z,24.12
2016-11-29T02:51:43.973Z,24.2
2016-11-29T02:52:11.957Z,24.16
2016-11-29T02:52:39.850Z,24.21
2016-11-29T02:53:09.391Z,24.13
2016-11-29T02:53:37.307Z,24.25
2016-11-29T02:54:08.412Z,24.18
2016-11-29T02:54:38.041Z,24.18
2016-11-29T02:55:09.992Z,24.25
2016-11-29T02:55:38.078Z,24.16
2016-11-29T02:56:05.971Z,24.16
2016-11-29T02:56:35.600Z,24.15
2016-11-29T02:57:04.452Z,24.24
2016-11-29T02:57:32.244Z,24.13
2016-11-29T02:58:00.323Z,24.27
2016-11-29T02:58:29.954Z,24.31
2016-11-29T02:58:58.805Z,24.27
2016-11-29T02:59:26.868Z,24.27
2016-11-29T02:59:54.941Z,24.28
2016-11-29T03:00:23.006Z,24.28
2016-11-29T03:00:52.635Z,24.27
2016-11-29T03:01:20.630Z,24.3
2016-11-29T03:01:48.533Z,24.24
2016-11-29T03:02:16.320Z,24.31
2016-11-29T03:02:44.381Z,24.28
2016-11-29T03:03:13.935Z,24.25
2016-11-29T03:03:43.474Z,24.27
2016-11-29T03:04:11.269Z,24.3
2016-11-29T03:04:40.087Z,24.31
2016-11-29T03:05:09.535Z,24.34
2016-11-29T03:05:37.508Z,24.35
2016-11-29T03:06:06.264Z,24.4
2016-11-29T03:06:35.022Z,24.46
2016-11-29T03:07:03.018Z,24.43
2016-11-29T03:07:30.899Z,24.5
2016-11-29T03:07:58.984Z,24.47
2016-11-29T03:08:27.037Z,24.46
2016-11-29T03:08:55.113Z,24.45
2016-11-29T03:09:23.093Z,24.45
2016-11-29T03:09:51.669Z,24.42
2016-11-29T03:10:21.295Z,24.43
2016-11-29T03:10:49.365Z,24.43
2016-11-29T03:11:18.226Z,24.45
2016-11-29T03:11:48.540Z,24.45
2016-11-29T03:12:16.515Z,24.39
2016-11-29T03:12:45.278Z,24.25
2016-11-29T03:13:13.360Z,24.28
2016-11-29T03:13:41.333Z,24.28
2016-11-29T03:14:09.404Z,24.16
2016-11-29T03:14:37.475Z,24.16
2016-11-29T03:15:05.449Z,24.18
2016-11-29T03:15:33.436Z,24.06
2016-11-29T03:16:01.413Z,24.03
2016-11-29T03:16:30.077Z,24.02
2016-11-29T03:17:36.431Z,23.75
2016-11-29T03:18:05.283Z,23.69
2016-11-29T03:18:33.162Z,23.47
2016-11-29T03:19:02.026Z,23.42
2016-11-29T03:19:30.091Z,23.39
2016-11-29T03:19:58.767Z,23.27
2016-11-29T03:20:26.854Z,23.13
2016-11-29T03:20:54.836Z,23.15
2016-11-29T03:21:22.909Z,22.95
2016-11-29T03:21:51.668Z,23
2016-11-29T03:22:20.418Z,22.85
2016-11-29T03:22:48.409Z,22.83
2016-11-29T03:23:16.386Z,22.72
2016-11-29T03:23:46.028Z,22.72
2016-11-29T03:24:14.014Z,22.77
2016-11-29T03:24:42.921Z,22.61
2016-11-29T03:25:11.003Z,22.62
2016-11-29T03:25:40.548Z,22.6
2016-11-29T03:26:09.118Z,22.51
2016-11-29T03:26:37.095Z,22.54
2016-11-29T03:27:07.503Z,22.55
2016-11-29T03:27:35.585Z,22.52
2016-11-29T03:28:05.122Z,22.35
2016-11-29T03:28:33.012Z,22.33
2016-11-29T03:29:00.992Z,22.27
2016-11-29T03:29:32.081Z,22.36
2016-11-29T03:29:59.880Z,22.27
2016-11-29T03:30:28.728Z,22.35
2016-11-29T03:30:56.709Z,22.18
2016-11-29T03:31:24.785Z,22.09
2016-11-29T03:31:52.768Z,22.14
2016-11-29T03:32:20.837Z,22.14
2016-11-29T03:32:50.469Z,21.98
2016-11-29T03:33:18.534Z,21.98
2016-11-29T03:33:46.527Z,21.96
2016-11-29T03:34:14.593Z,21.91
2016-11-29T03:34:43.446Z,21.96
2016-11-29T03:35:11.534Z,21.9
2016-11-29T03:35:40.288Z,21.99
2016-11-29T03:36:09.148Z,21.92
2016-11-29T03:36:37.213Z,21.84
2016-11-29T03:37:05.283Z,21.72
2016-11-29T03:37:33.183Z,21.77
2016-11-29T03:38:01.960Z,21.74
2016-11-29T03:38:30.011Z,21.8
2016-11-29T03:38:59.449Z,21.72
2016-11-29T03:39:28.233Z,21.69
2016-11-29T03:39:56.375Z,21.72
2016-11-29T03:40:24.437Z,21.68
2016-11-29T03:40:53.299Z,21.68
2016-11-29T03:41:21.198Z,21.79
2016-11-29T03:41:49.168Z,21.75
2016-11-29T03:42:17.228Z,21.72
2016-11-29T03:42:45.221Z,21.83
2016-11-29T03:43:14.760Z,21.69
2016-11-29T03:43:42.744Z,21.77
2016-11-29T03:44:10.544Z,21.8
2016-11-29T03:44:39.383Z,21.75
2016-11-29T03:45:09.774Z,21.69
2016-11-29T03:45:40.724Z,21.65
2016-11-29T03:46:08.615Z,21.68
2016-11-29T03:46:36.697Z,21.69
2016-11-29T03:47:05.456Z,21.65
2016-11-29T03:47:34.121Z,21.72
2016-11-29T03:48:02.008Z,21.64
2016-11-29T03:48:31.647Z,21.8
2016-11-29T03:48:59.633Z,21.69
2016-11-29T03:49:28.387Z,21.75
2016-11-29T03:49:56.365Z,21.65
2016-11-29T03:50:25.224Z,21.74
2016-11-29T03:50:53.296Z,21.83
2016-11-29T03:51:21.275Z,21.83
2016-11-29T03:51:49.336Z,21.82
2016-11-29T03:52:17.316Z,21.84
2016-11-29T03:52:45.394Z,21.79
2016-11-29T03:53:14.149Z,21.8
2016-11-29T03:53:43.000Z,21.83
2016-11-29T03:54:11.675Z,21.83
2016-11-29T03:54:39.845Z,21.94
2016-11-29T03:55:07.741Z,21.75
2016-11-29T03:55:35.717Z,21.88
2016-11-29T03:56:03.629Z,21.83
2016-11-29T03:57:09.893Z,21.91
2016-11-29T03:57:37.961Z,21.98
2016-11-29T03:58:08.362Z,21.99
2016-11-29T03:58:36.359Z,21.91
2016-11-29T03:59:05.218Z,21.86
2016-11-29T03:59:33.198Z,21.9
2016-11-29T04:00:01.279Z,21.92
2016-11-29T04:00:29.258Z,21.82
2016-11-29T04:00:58.011Z,21.83
2016-11-29T04:01:26.084Z,21.84
2016-11-29T04:01:55.529Z,21.86
2016-11-29T04:02:24.381Z,21.86
2016-11-29T04:02:52.364Z,21.82
2016-11-29T04:03:20.250Z,21.86
2016-11-29T04:03:48.323Z,21.77
2016-11-29T04:04:17.086Z,21.74
2016-11-29T04:04:45.158Z,21.79
2016-11-29T04:05:14.917Z,21.74
2016-11-29T04:05:42.802Z,21.75
2016-11-29T04:06:13.196Z,21.72
2016-11-29T04:06:41.262Z,21.71
2016-11-29T04:07:09.340Z,21.62
2016-11-29T04:07:38.880Z,21.5
2016-11-29T04:08:08.453Z,21.53
2016-11-29T04:08:36.334Z,21.53
2016-11-29T04:09:05.094Z,21.52
2016-11-29T04:09:34.006Z,21.49
2016-11-29T04:10:03.639Z,21.52
2016-11-29T04:10:31.616Z,21.42
2016-11-29T04:10:59.601Z,21.53
2016-11-29T04:11:29.136Z,21.56
2016-11-29T04:11:59.537Z,21.49
2016-11-29T04:12:27.607Z,21.52
2016-11-29T04:12:55.579Z,21.4
2016-11-29T04:13:23.658Z,21.34
2016-11-29T04:13:52.423Z,21.07
2016-11-29T04:14:20.492Z,21.04
2016-11-29T04:14:48.480Z,20.92
2016-11-29T04:15:17.322Z,20.91
2016-11-29T04:15:47.736Z,20.87
2016-11-29T04:16:15.711Z,20.89
2016-11-29T04:16:43.599Z,20.87
2016-11-29T04:17:12.369Z,20.89
2016-11-29T04:17:41.131Z,20.88
2016-11-29T04:18:09.895Z,20.98
2016-11-29T04:18:37.958Z,20.89
2016-11-29T04:19:06.031Z,20.66
2016-11-29T04:19:34.000Z,20.73
2016-11-29T04:20:02.066Z,20.76
2016-11-29T04:20:30.317Z,20.82
2016-11-29T04:20:58.215Z,20.73
2016-11-29T04:21:26.182Z,20.72
2016-11-29T04:21:54.241Z,20.79
2016-11-29T04:22:22.234Z,20.72
2016-11-29T04:22:50.246Z,20.67
2016-11-29T04:23:19.885Z,20.69
2016-11-29T04:23:47.952Z,20.74
2016-11-29T04:24:16.611Z,20.7
2016-11-29T04:24:46.475Z,20.74
2016-11-29T04:25:14.261Z,20.66
2016-11-29T04:25:43.889Z,20.72
2016-11-29T04:26:12.749Z,20.7
2016-11-29T04:26:42.185Z,20.67
2016-11-29T04:27:11.036Z,20.69
2016-11-29T04:27:39.017Z,20.69
2016-11-29T04:28:07.779Z,20.64
2016-11-29T04:28:35.843Z,20.7
2016-11-29T04:29:04.680Z,20.64
2016-11-29T04:29:32.747Z,20.64
2016-11-29T04:30:03.161Z,20.52
2016-11-29T04:30:31.237Z,20.52
2016-11-29T04:30:59.228Z,20.57
2016-11-29T04:31:28.077Z,20.48
2016-11-29T04:31:56.156Z,20.54
2016-11-29T04:32:26.564Z,20.51
2016-11-29T04:32:55.237Z,20.39
2016-11-29T04:33:24.780Z,20.58
2016-11-29T04:33:52.849Z,20.51
2016-11-29T04:34:21.699Z,20.39
2016-11-29T04:34:49.685Z,20.48
2016-11-29T04:35:19.229Z,20.5
2016-11-29T04:35:47.297Z,20.42
2016-11-29T04:36:54.422Z,20.35
2016-11-29T04:37:22.140Z,20.38
2016-11-29T04:37:51.769Z,20.42
2016-11-29T04:38:20.549Z,20.41
2016-11-29T04:38:48.623Z,20.41
2016-11-29T04:39:18.069Z,20.36
2016-11-29T04:39:46.224Z,20.36
2016-11-29T04:40:14.203Z,20.38
2016-11-29T04:40:42.126Z,20.42
2016-11-29T04:41:11.755Z,20.42
2016-11-29T04:41:40.602Z,20.32
2016-11-29T04:42:08.670Z,20.32
2016-11-29T04:42:36.557Z,20.48
2016-11-29T04:43:04.540Z,20.42
2016-11-29T04:43:32.610Z,20.32
2016-11-29T04:44:01.362Z,20.39
2016-11-29T04:44:30.215Z,20.35
2016-11-29T04:44:58.304Z,20.39
2016-11-29T04:45:27.149Z,20.33
2016-11-29T04:45:55.226Z,20.28
2016-11-29T04:46:24.857Z,20.23
2016-11-29T04:46:53.713Z,20.26
2016-11-29T04:47:22.558Z,20.2
2016-11-29T04:47:50.538Z,20.21
2016-11-29T04:48:18.518Z,20.31
2016-11-29T04:48:46.586Z,20.33
2016-11-29T04:49:14.477Z,20.29
2016-11-29T04:49:42.274Z,20.23
2016-11-29T04:50:10.341Z,20.23
2016-11-29T04:50:39.983Z,20.24
2016-11-29T04:51:08.055Z,20.17
2016-11-29T04:51:36.905Z,20.16
2016-11-29T04:52:04.978Z,20.24
2016-11-29T04:52:32.854Z,20.26
2016-11-29T04:53:00.854Z,20.21
2016-11-29T04:53:28.827Z,20.23
2016-11-29T04:53:56.886Z,20.13
2016-11-29T04:54:24.782Z,20.2
2016-11-29T04:54:54.409Z,20.11
2016-11-29T04:55:24.029Z,20.13
2016-11-29T04:55:54.659Z,20.17
2016-11-29T04:56:23.409Z,20.24
2016-11-29T04:56:51.302Z,20.23
2016-11-29T04:57:20.845Z,20.17
2016-11-29T04:57:50.485Z,20.16
2016-11-29T04:58:18.459Z,20.16
2016-11-29T04:58:47.315Z,20.02
2016-11-29T04:59:15.291Z,20.02
2016-11-29T04:59:45.798Z,20.14
2016-11-29T05:00:13.869Z,20.18
2016-11-29T05:00:41.781Z,20.06
2016-11-29T05:01:09.661Z,20.17
2016-11-29T05:01:37.723Z,20.18
2016-11-29T05:02:05.625Z,20.11
2016-11-29T05:02:33.603Z,20.14
2016-11-29T05:03:02.262Z,20.11
2016-11-29T05:03:31.134Z,20.16
2016-11-29T05:03:59.191Z,20.08
2016-11-29T05:04:27.260Z,20.11
2016-11-29T05:04:55.327Z,20.16
2016-11-29T05:05:26.432Z,20.08
2016-11-29T05:05:55.202Z,20.06
2016-11-29T05:06:25.601Z,20.03
2016-11-29T05:06:54.359Z,20.05
2016-11-29T05:07:23.994Z,20.1
2016-11-29T05:07:51.969Z,20.06
2016-11-29T05:08:19.945Z,20.08
2016-11-29T05:08:47.820Z,20.06
2016-11-29T05:09:17.359Z,20.08
2016-11-29T05:09:45.583Z,20.13
2016-11-29T05:10:13.571Z,20.05
2016-11-29T05:10:41.639Z,20.05
2016-11-29T05:11:09.437Z,20.06
2016-11-29T05:11:37.510Z,20.08
2016-11-29T05:12:05.496Z,20.05
2016-11-29T05:12:34.246Z,19.96
2016-11-29T05:13:02.223Z,20.05
2016-11-29T05:13:30.900Z,20.08
2016-11-29T05:13:58.874Z,19.95
2016-11-29T05:14:26.866Z,20.03
2016-11-29T05:14:54.935Z,19.99
2016-11-29T05:15:23.778Z,20.03
2016-11-29T05:16:30.135Z,19.92
2016-11-29T05:16:58.911Z,19.98
2016-11-29T05:17:26.882Z,19.94
2016-11-29T05:17:55.743Z,19.86
2016-11-29T05:18:23.811Z,19.92
2016-11-29T05:18:51.707Z,19.95
2016-11-29T05:19:21.343Z,19.88
2016-11-29T05:19:49.608Z,19.91
2016-11-29T05:20:17.598Z,19.87
2016-11-29T05:20:47.132Z,19.81
2016-11-29T05:21:15.975Z,19.83
2016-11-29T05:21:45.602Z,19.87
2016-11-29T05:22:13.575Z,19.84
2016-11-29T05:22:42.335Z,19.88
2016-11-29T05:23:10.317Z,19.84
2016-11-29T05:23:39.948Z,19.87
2016-11-29T05:24:09.479Z,19.77
2016-11-29T05:24:39.321Z,19.77
2016-11-29T05:25:08.170Z,19.81
2016-11-29T05:25:38.480Z,19.86
2016-11-29T05:26:06.377Z,19.84
2016-11-29T05:26:34.449Z,19.8
2016-11-29T05:27:04.082Z,19.86
2016-11-29T05:27:33.709Z,19.74
2016-11-29T05:28:01.773Z,19.83
2016-11-29T05:28:31.409Z,19.86
2016-11-29T05:28:59.385Z,19.77
2016-11-29T05:29:27.456Z,19.83
2016-11-29T05:29:58.027Z,19.87
2016-11-29T05:30:28.351Z,19.76
2016-11-29T05:30:56.422Z,19.86
2016-11-29T05:31:24.315Z,19.86
2016-11-29T05:31:54.838Z,19.81
2016-11-29T05:32:23.497Z,19.84
2016-11-29T05:32:51.568Z,19.86
2016-11-29T05:33:19.632Z,19.77
2016-11-29T05:33:47.621Z,19.84
2016-11-29T05:34:15.702Z,19.77
2016-11-29T05:34:43.599Z,19.81
2016-11-29T05:35:12.357Z,19.83
2016-11-29T05:35:41.205Z,19.84
2016-11-29T05:36:09.861Z,19.86
2016-11-29T05:36:38.638Z,19.86
2016-11-29T05:37:06.710Z,19.84
2016-11-29T05:37:34.691Z,19.87
2016-11-29T05:38:03.541Z,19.94
2016-11-29T05:38:32.309Z,19.88
2016-11-29T05:39:00.285Z,19.92
2016-11-29T05:39:28.259Z,19.91
2016-11-29T05:39:56.387Z,19.95
2016-11-29T05:40:24.477Z,19.91
2016-11-29T05:40:53.131Z,19.88
2016-11-29T05:41:24.409Z,19.91
2016-11-29T05:41:52.484Z,19.87
2016-11-29T05:42:21.156Z,19.87
2016-11-29T05:42:50.786Z,19.77
2016-11-29T05:43:18.767Z,19.78
2016-11-29T05:43:46.655Z,19.86
2016-11-29T05:44:15.641Z,19.81
2016-11-29T05:44:44.394Z,19.88
2016-11-29T05:45:14.027Z,19.86
2016-11-29T05:45:42.012Z,19.87
2016-11-29T05:46:10.767Z,19.78
2016-11-29T05:46:38.649Z,19.81
2016-11-29T05:47:06.744Z,19.77
2016-11-29T05:47:35.597Z,19.87
2016-11-29T05:48:04.444Z,19.86
2016-11-29T05:48:32.622Z,19.68
2016-11-29T05:49:00.881Z,19.69
2016-11-29T05:49:28.767Z,19.68
2016-11-29T05:49:56.756Z,19.69
2016-11-29T05:50:25.506Z,19.66
2016-11-29T05:50:54.261Z,19.71
2016-11-29T05:51:22.241Z,19.73
2016-11-29T05:51:50.317Z,19.8
2016-11-29T05:52:18.242Z,19.81
2016-11-29T05:52:47.093Z,19.8
2016-11-29T05:53:15.074Z,19.8
2016-11-29T05:53:44.714Z,19.87
2016-11-29T05:54:12.694Z,19.78
2016-11-29T05:54:41.642Z,19.78
2016-11-29T05:55:09.707Z,19.76
2016-11-29T05:56:15.980Z,19.87
2016-11-29T05:56:45.429Z,19.91
2016-11-29T05:57:13.311Z,19.86
2016-11-29T05:57:41.307Z,19.86
2016-11-29T05:58:12.637Z,19.87
2016-11-29T05:58:40.619Z,19.73
2016-11-29T05:59:08.605Z,19.73
2016-11-29T05:59:36.590Z,19.78
2016-11-29T06:00:06.325Z,19.88
2016-11-29T06:00:35.079Z,19.74
2016-11-29T06:01:03.831Z,19.83
2016-11-29T06:01:31.724Z,19.8
2016-11-29T06:01:59.703Z,19.92
2016-11-29T06:02:28.202Z,19.86
2016-11-29T06:02:56.271Z,19.91
2016-11-29T06:03:25.033Z,19.92
2016-11-29T06:03:53.027Z,19.95
2016-11-29T06:04:21.882Z,19.92
2016-11-29T06:04:49.949Z,19.87
2016-11-29T06:05:18.710Z,19.88
2016-11-29T06:05:48.338Z,19.81
2016-11-29T06:06:16.330Z,19.92
2016-11-29T06:06:45.953Z,19.81
2016-11-29T06:07:14.022Z,19.81
2016-11-29T06:07:42.089Z,19.88
2016-11-29T06:08:10.160Z,19.92
2016-11-29T06:08:38.234Z,19.87
2016-11-29T06:09:07.086Z,19.92
2016-11-29T06:09:35.938Z,19.87
2016-11-29T06:10:04.013Z,19.88
2016-11-29T06:10:32.007Z,19.81
2016-11-29T06:11:01.644Z,19.87
2016-11-29T06:11:30.490Z,19.84
2016-11-29T06:11:59.328Z,19.86
2016-11-29T06:12:28.184Z,19.87
2016-11-29T06:12:56.248Z,19.94
2016-11-29T06:13:24.134Z,19.98
2016-11-29T06:13:53.205Z,19.86
2016-11-29T06:14:21.870Z,19.88
2016-11-29T06:14:50.732Z,19.95